sensor_id;sensor_type;location;lat;lon;timestamp;pressure;altitude;pressure_sealevel;temperature;humidity
7906;BME280;13291;40.472;-3.878;2023-04-26T00:01:00;53016.00;;;-139.96;34.18
7906;BME280;13291;40.472;-3.878;2023-04-26T00:03:29;52969.97;;;-139.96;34.14
7906;BME280;13291;40.472;-3.878;2023-04-26T00:05:58;52989.97;;;-139.96;33.89
7906;BME280;13291;40.472;-3.878;2023-04-26T00:08:28;52963.97;;;-139.96;34.06
7906;BME280;13291;40.472;-3.878;2023-04-26T00:10:56;52989.97;;;-139.96;34.21
7906;BME280;13291;40.472;-3.878;2023-04-26T00:13:23;52993.97;;;-139.96;34.30
7906;BME280;13291;40.472;-3.878;2023-04-26T00:15:50;53001.97;;;-139.96;34.11
7906;BME280;13291;40.472;-3.878;2023-04-26T00:18:17;53005.97;;;-139.96;34.18
7906;BME280;13291;40.472;-3.878;2023-04-26T00:20:44;52965.97;;;-139.96;34.10
7906;BME280;13291;40.472;-3.878;2023-04-26T00:23:11;52979.97;;;-139.96;33.91
7906;BME280;13291;40.472;-3.878;2023-04-26T00:25:37;53005.97;;;-139.96;34.24
7906;BME280;13291;40.472;-3.878;2023-04-26T00:28:06;52961.97;;;-139.96;33.83
7906;BME280;13291;40.472;-3.878;2023-04-26T00:30:34;52951.97;;;-139.96;34.28
7906;BME280;13291;40.472;-3.878;2023-04-26T00:33:02;52999.97;;;-139.96;34.12
7906;BME280;13291;40.472;-3.878;2023-04-26T00:35:29;52977.97;;;-139.96;34.21
7906;BME280;13291;40.472;-3.878;2023-04-26T00:37:56;52997.97;;;-139.96;33.97
7906;BME280;13291;40.472;-3.878;2023-04-26T00:40:22;52959.97;;;-139.96;33.81
7906;BME280;13291;40.472;-3.878;2023-04-26T00:42:56;53001.97;;;-139.96;34.10
7906;BME280;13291;40.472;-3.878;2023-04-26T00:45:24;52969.97;;;-139.96;34.05
7906;BME280;13291;40.472;-3.878;2023-04-26T00:47:52;52969.97;;;-139.96;34.01
7906;BME280;13291;40.472;-3.878;2023-04-26T00:50:19;52961.97;;;-139.96;34.26
7906;BME280;13291;40.472;-3.878;2023-04-26T00:52:46;53038.00;;;-139.96;34.19
7906;BME280;13291;40.472;-3.878;2023-04-26T00:55:14;52965.97;;;-139.96;34.26
7906;BME280;13291;40.472;-3.878;2023-04-26T00:57:43;52977.97;;;-139.96;33.99
7906;BME280;13291;40.472;-3.878;2023-04-26T01:00:11;52983.97;;;-139.96;34.24
7906;BME280;13291;40.472;-3.878;2023-04-26T01:02:39;52985.97;;;-139.96;34.50
7906;BME280;13291;40.472;-3.878;2023-04-26T01:05:07;52969.97;;;-139.96;34.43
7906;BME280;13291;40.472;-3.878;2023-04-26T01:07:35;52959.97;;;-139.96;34.34
7906;BME280;13291;40.472;-3.878;2023-04-26T01:10:05;52989.97;;;-139.96;34.33
7906;BME280;13291;40.472;-3.878;2023-04-26T01:12:33;53005.97;;;-139.96;35.01
7906;BME280;13291;40.472;-3.878;2023-04-26T01:15:01;52941.97;;;-139.96;34.95
7906;BME280;13291;40.472;-3.878;2023-04-26T01:17:29;53009.97;;;-139.96;35.05
7906;BME280;13291;40.472;-3.878;2023-04-26T01:19:58;53007.97;;;-139.96;35.05
7906;BME280;13291;40.472;-3.878;2023-04-26T01:22:25;53016.00;;;-139.96;35.22
7906;BME280;13291;40.472;-3.878;2023-04-26T01:24:55;52973.97;;;-139.96;35.14
7906;BME280;13291;40.472;-3.878;2023-04-26T01:27:23;53020.00;;;-139.96;35.05
7906;BME280;13291;40.472;-3.878;2023-04-26T01:29:50;53001.97;;;-139.96;35.66
7906;BME280;13291;40.472;-3.878;2023-04-26T01:32:17;52975.97;;;-139.96;35.71
7906;BME280;13291;40.472;-3.878;2023-04-26T01:34:44;52989.97;;;-139.96;35.79
7906;BME280;13291;40.472;-3.878;2023-04-26T01:37:11;52989.97;;;-139.96;34.79
7906;BME280;13291;40.472;-3.878;2023-04-26T01:39:37;52997.97;;;-139.96;35.81
7906;BME280;13291;40.472;-3.878;2023-04-26T01:42:06;52985.97;;;-139.96;35.17
7906;BME280;13291;40.472;-3.878;2023-04-26T01:44:32;52995.97;;;-139.96;34.92
7906;BME280;13291;40.472;-3.878;2023-04-26T01:46:59;52997.97;;;-139.96;35.50
7906;BME280;13291;40.472;-3.878;2023-04-26T01:49:26;52985.97;;;-139.96;35.79
7906;BME280;13291;40.472;-3.878;2023-04-26T01:51:53;53009.97;;;-139.96;36.12
7906;BME280;13291;40.472;-3.878;2023-04-26T01:54:20;53012.00;;;-139.96;36.19
7906;BME280;13291;40.472;-3.878;2023-04-26T01:56:47;52979.97;;;-139.96;35.63
7906;BME280;13291;40.472;-3.878;2023-04-26T01:59:15;52979.97;;;-139.96;35.32
7906;BME280;13291;40.472;-3.878;2023-04-26T02:01:42;53014.00;;;-139.96;35.55
7906;BME280;13291;40.472;-3.878;2023-04-26T02:04:09;53014.00;;;-139.96;35.34
7906;BME280;13291;40.472;-3.878;2023-04-26T02:06:36;52979.97;;;-139.96;36.34
7906;BME280;13291;40.472;-3.878;2023-04-26T02:09:03;52997.97;;;-139.96;36.27
7906;BME280;13291;40.472;-3.878;2023-04-26T02:11:30;53005.97;;;-139.96;36.34
7906;BME280;13291;40.472;-3.878;2023-04-26T02:13:57;52985.97;;;-139.96;36.44
7906;BME280;13291;40.472;-3.878;2023-04-26T02:16:25;52975.97;;;-139.96;36.51
7906;BME280;13291;40.472;-3.878;2023-04-26T02:18:52;52989.97;;;-139.96;36.16
7906;BME280;13291;40.472;-3.878;2023-04-26T02:21:20;53020.00;;;-139.96;36.32
7906;BME280;13291;40.472;-3.878;2023-04-26T02:23:47;53034.00;;;-139.96;36.46
7906;BME280;13291;40.472;-3.878;2023-04-26T02:26:14;53005.97;;;-139.96;35.91
7906;BME280;13291;40.472;-3.878;2023-04-26T02:28:41;53005.97;;;-139.96;36.53
7906;BME280;13291;40.472;-3.878;2023-04-26T02:31:08;53014.00;;;-139.96;36.80
7906;BME280;13291;40.472;-3.878;2023-04-26T02:33:36;52995.97;;;-139.96;36.84
7906;BME280;13291;40.472;-3.878;2023-04-26T02:36:04;52983.97;;;-139.96;36.32
7906;BME280;13291;40.472;-3.878;2023-04-26T02:38:32;53026.00;;;-139.96;36.40
7906;BME280;13291;40.472;-3.878;2023-04-26T02:40:59;53005.97;;;-139.96;36.66
7906;BME280;13291;40.472;-3.878;2023-04-26T02:43:26;52971.97;;;-139.96;36.94
7906;BME280;13291;40.472;-3.878;2023-04-26T02:45:53;53001.97;;;-139.96;36.67
7906;BME280;13291;40.472;-3.878;2023-04-26T02:48:23;52997.97;;;-139.96;36.71
7906;BME280;13291;40.472;-3.878;2023-04-26T02:50:51;53038.00;;;-139.96;36.56
7906;BME280;13291;40.472;-3.878;2023-04-26T02:53:18;53005.97;;;-139.96;36.87
7906;BME280;13291;40.472;-3.878;2023-04-26T02:55:45;52987.97;;;-139.96;37.06
7906;BME280;13291;40.472;-3.878;2023-04-26T02:58:12;53028.00;;;-139.96;36.81
7906;BME280;13291;40.472;-3.878;2023-04-26T03:00:44;53042.00;;;-139.96;37.08
7906;BME280;13291;40.472;-3.878;2023-04-26T03:03:11;53024.00;;;-139.96;37.80
7906;BME280;13291;40.472;-3.878;2023-04-26T03:05:38;52997.97;;;-139.96;37.97
7906;BME280;13291;40.472;-3.878;2023-04-26T03:08:07;53046.00;;;-139.96;38.18
7906;BME280;13291;40.472;-3.878;2023-04-26T03:10:34;53042.00;;;-139.96;38.11
7906;BME280;13291;40.472;-3.878;2023-04-26T03:13:01;53048.00;;;-139.96;38.28
7906;BME280;13291;40.472;-3.878;2023-04-26T03:15:28;53016.00;;;-139.96;38.19
7906;BME280;13291;40.472;-3.878;2023-04-26T03:17:55;53024.00;;;-139.96;38.38
7906;BME280;13291;40.472;-3.878;2023-04-26T03:20:23;53005.97;;;-139.96;37.79
7906;BME280;13291;40.472;-3.878;2023-04-26T03:22:50;53028.00;;;-139.96;38.30
7906;BME280;13291;40.472;-3.878;2023-04-26T03:25:18;53012.00;;;-139.96;38.45
7906;BME280;13291;40.472;-3.878;2023-04-26T03:27:45;53001.97;;;-139.96;38.45
7906;BME280;13291;40.472;-3.878;2023-04-26T03:30:13;53052.00;;;-139.96;38.04
7906;BME280;13291;40.472;-3.878;2023-04-26T03:32:40;53030.00;;;-139.96;38.53
7906;BME280;13291;40.472;-3.878;2023-04-26T03:35:07;53040.00;;;-139.96;38.00
7906;BME280;13291;40.472;-3.878;2023-04-26T03:37:35;53048.00;;;-139.96;37.78
7906;BME280;13291;40.472;-3.878;2023-04-26T03:40:05;53022.00;;;-139.96;37.46
7906;BME280;13291;40.472;-3.878;2023-04-26T03:42:34;53030.00;;;-139.96;37.71
7906;BME280;13291;40.472;-3.878;2023-04-26T03:45:01;53042.00;;;-139.96;38.16
7906;BME280;13291;40.472;-3.878;2023-04-26T03:47:28;53034.00;;;-139.96;37.79
7906;BME280;13291;40.472;-3.878;2023-04-26T03:49:55;53026.00;;;-139.96;38.47
7906;BME280;13291;40.472;-3.878;2023-04-26T03:52:21;53036.00;;;-139.96;38.57
7906;BME280;13291;40.472;-3.878;2023-04-26T03:54:48;53003.97;;;-139.96;38.35
7906;BME280;13291;40.472;-3.878;2023-04-26T03:57:15;53026.00;;;-139.96;38.19
7906;BME280;13291;40.472;-3.878;2023-04-26T03:59:43;53050.00;;;-139.96;38.54
7906;BME280;13291;40.472;-3.878;2023-04-26T04:02:10;53030.00;;;-139.96;38.87
7906;BME280;13291;40.472;-3.878;2023-04-26T04:04:37;53034.00;;;-139.96;38.43
7906;BME280;13291;40.472;-3.878;2023-04-26T04:07:04;53030.00;;;-139.96;38.91
7906;BME280;13291;40.472;-3.878;2023-04-26T04:09:31;53056.00;;;-139.96;38.46
7906;BME280;13291;40.472;-3.878;2023-04-26T04:11:58;52997.97;;;-139.96;38.94
7906;BME280;13291;40.472;-3.878;2023-04-26T04:14:24;53064.00;;;-139.96;39.17
7906;BME280;13291;40.472;-3.878;2023-04-26T04:16:53;53058.00;;;-139.96;38.97
7906;BME280;13291;40.472;-3.878;2023-04-26T04:19:20;53036.00;;;-139.96;38.67
7906;BME280;13291;40.472;-3.878;2023-04-26T04:21:46;53028.00;;;-139.96;38.62
7906;BME280;13291;40.472;-3.878;2023-04-26T04:24:13;53052.00;;;-139.96;38.78
7906;BME280;13291;40.472;-3.878;2023-04-26T04:26:40;53068.00;;;-139.96;39.11
7906;BME280;13291;40.472;-3.878;2023-04-26T04:29:07;53038.00;;;-139.96;39.12
7906;BME280;13291;40.472;-3.878;2023-04-26T04:31:34;53054.00;;;-139.96;38.69
7906;BME280;13291;40.472;-3.878;2023-04-26T04:34:02;53016.00;;;-139.96;39.12
7906;BME280;13291;40.472;-3.878;2023-04-26T04:36:29;53050.00;;;-139.96;38.61
7906;BME280;13291;40.472;-3.878;2023-04-26T04:38:56;53046.00;;;-139.96;38.60
7906;BME280;13291;40.472;-3.878;2023-04-26T04:41:23;53042.00;;;-139.96;38.64
7906;BME280;13291;40.472;-3.878;2023-04-26T04:43:50;53068.00;;;-139.96;38.46
7906;BME280;13291;40.472;-3.878;2023-04-26T04:46:18;53058.00;;;-139.96;38.78
7906;BME280;13291;40.472;-3.878;2023-04-26T04:48:44;53062.00;;;-139.96;38.41
7906;BME280;13291;40.472;-3.878;2023-04-26T04:51:13;53032.00;;;-139.96;38.57
7906;BME280;13291;40.472;-3.878;2023-04-26T04:53:40;53066.00;;;-139.96;38.65
7906;BME280;13291;40.472;-3.878;2023-04-26T04:56:06;53056.00;;;-139.96;38.53
7906;BME280;13291;40.472;-3.878;2023-04-26T04:58:34;53058.00;;;-139.96;38.64
7906;BME280;13291;40.472;-3.878;2023-04-26T05:01:01;53030.00;;;-139.96;38.40
7906;BME280;13291;40.472;-3.878;2023-04-26T05:03:28;53046.00;;;-139.96;38.26
7906;BME280;13291;40.472;-3.878;2023-04-26T05:05:55;53050.00;;;-139.96;38.40
7906;BME280;13291;40.472;-3.878;2023-04-26T05:08:23;53066.00;;;-139.96;38.50
7906;BME280;13291;40.472;-3.878;2023-04-26T05:10:50;53038.00;;;-139.96;38.26
7906;BME280;13291;40.472;-3.878;2023-04-26T05:13:17;53068.00;;;-139.96;38.83
7906;BME280;13291;40.472;-3.878;2023-04-26T05:15:44;53074.00;;;-139.96;38.67
7906;BME280;13291;40.472;-3.878;2023-04-26T05:18:11;53048.00;;;-139.96;38.90
7906;BME280;13291;40.472;-3.878;2023-04-26T05:20:38;53046.00;;;-139.96;38.45
7906;BME280;13291;40.472;-3.878;2023-04-26T05:23:05;53058.00;;;-139.96;38.62
7906;BME280;13291;40.472;-3.878;2023-04-26T05:25:36;53052.00;;;-139.96;38.62
7906;BME280;13291;40.472;-3.878;2023-04-26T05:28:03;53056.00;;;-139.96;38.41
7906;BME280;13291;40.472;-3.878;2023-04-26T05:30:32;53046.00;;;-139.96;39.04
7906;BME280;13291;40.472;-3.878;2023-04-26T05:32:59;53078.00;;;-139.96;38.80
7906;BME280;13291;40.472;-3.878;2023-04-26T05:35:26;53034.00;;;-139.96;38.70
7906;BME280;13291;40.472;-3.878;2023-04-26T05:37:53;53034.00;;;-139.96;38.38
7906;BME280;13291;40.472;-3.878;2023-04-26T05:40:20;53058.00;;;-139.96;38.41
7906;BME280;13291;40.472;-3.878;2023-04-26T05:42:48;53044.00;;;-139.96;38.80
7906;BME280;13291;40.472;-3.878;2023-04-26T05:45:16;53056.00;;;-139.96;38.67
7906;BME280;13291;40.472;-3.878;2023-04-26T05:47:42;53064.00;;;-139.96;38.09
7906;BME280;13291;40.472;-3.878;2023-04-26T05:50:11;53064.00;;;-139.96;38.47
7906;BME280;13291;40.472;-3.878;2023-04-26T05:52:38;53072.00;;;-139.96;39.07
7906;BME280;13291;40.472;-3.878;2023-04-26T05:55:06;53026.00;;;-139.96;39.35
7906;BME280;13291;40.472;-3.878;2023-04-26T05:57:33;53054.00;;;-139.96;39.08
7906;BME280;13291;40.472;-3.878;2023-04-26T06:00:04;53042.00;;;-139.96;39.04
7906;BME280;13291;40.472;-3.878;2023-04-26T06:02:31;53056.00;;;-139.96;39.16
7906;BME280;13291;40.472;-3.878;2023-04-26T06:04:58;53052.00;;;-139.96;38.91
7906;BME280;13291;40.472;-3.878;2023-04-26T06:07:24;53038.00;;;-139.96;39.04
7906;BME280;13291;40.472;-3.878;2023-04-26T06:09:51;53068.00;;;-139.96;39.09
7906;BME280;13291;40.472;-3.878;2023-04-26T06:12:18;53082.00;;;-139.96;39.01
7906;BME280;13291;40.472;-3.878;2023-04-26T06:14:45;53054.00;;;-139.96;38.98
7906;BME280;13291;40.472;-3.878;2023-04-26T06:17:14;53052.00;;;-139.96;39.19
7906;BME280;13291;40.472;-3.878;2023-04-26T06:19:40;53046.00;;;-139.96;39.56
7906;BME280;13291;40.472;-3.878;2023-04-26T06:22:07;53080.00;;;-139.96;39.37
7906;BME280;13291;40.472;-3.878;2023-04-26T06:24:34;53056.00;;;-139.96;39.48
7906;BME280;13291;40.472;-3.878;2023-04-26T06:27:01;53076.00;;;-139.96;38.97
7906;BME280;13291;40.472;-3.878;2023-04-26T06:29:31;53066.00;;;-139.96;39.14
7906;BME280;13291;40.472;-3.878;2023-04-26T06:31:58;53076.00;;;-139.96;39.15
7906;BME280;13291;40.472;-3.878;2023-04-26T06:34:26;53072.00;;;-139.96;39.22
7906;BME280;13291;40.472;-3.878;2023-04-26T06:36:53;53074.00;;;-139.96;39.07
7906;BME280;13291;40.472;-3.878;2023-04-26T06:39:20;53090.00;;;-139.96;39.13
7906;BME280;13291;40.472;-3.878;2023-04-26T06:41:47;53050.00;;;-139.96;39.35
7906;BME280;13291;40.472;-3.878;2023-04-26T06:44:13;53082.00;;;-139.96;39.67
7906;BME280;13291;40.472;-3.878;2023-04-26T06:46:40;53070.00;;;-139.96;39.52
7906;BME280;13291;40.472;-3.878;2023-04-26T06:49:07;53056.00;;;-139.96;39.53
7906;BME280;13291;40.472;-3.878;2023-04-26T06:51:37;53052.00;;;-139.96;39.88
7906;BME280;13291;40.472;-3.878;2023-04-26T06:54:04;53076.00;;;-139.96;39.99
7906;BME280;13291;40.472;-3.878;2023-04-26T06:56:31;53060.00;;;-139.96;40.17
7906;BME280;13291;40.472;-3.878;2023-04-26T06:58:59;53078.00;;;-139.96;39.87
7906;BME280;13291;40.472;-3.878;2023-04-26T07:01:26;53062.00;;;-139.96;39.82
7906;BME280;13291;40.472;-3.878;2023-04-26T07:03:54;53078.00;;;-139.96;39.67
7906;BME280;13291;40.472;-3.878;2023-04-26T07:06:21;53066.00;;;-139.96;39.92
7906;BME280;13291;40.472;-3.878;2023-04-26T07:08:50;53030.00;;;-139.96;40.08
7906;BME280;13291;40.472;-3.878;2023-04-26T07:11:17;53018.00;;;-139.96;40.53
7906;BME280;13291;40.472;-3.878;2023-04-26T07:13:44;53058.00;;;-139.96;40.29
7906;BME280;13291;40.472;-3.878;2023-04-26T07:16:10;53050.00;;;-139.96;40.10
7906;BME280;13291;40.472;-3.878;2023-04-26T07:18:38;53066.00;;;-139.96;40.43
7906;BME280;13291;40.472;-3.878;2023-04-26T07:21:05;53054.00;;;-139.96;40.21
7906;BME280;13291;40.472;-3.878;2023-04-26T07:23:33;53054.00;;;-139.96;40.03
7906;BME280;13291;40.472;-3.878;2023-04-26T07:26:01;53022.00;;;-139.96;39.95
7906;BME280;13291;40.472;-3.878;2023-04-26T07:28:29;53034.00;;;-139.96;40.00
7906;BME280;13291;40.472;-3.878;2023-04-26T07:30:56;53050.00;;;-139.96;40.03
7906;BME280;13291;40.472;-3.878;2023-04-26T07:33:23;53009.97;;;-139.96;39.16
7906;BME280;13291;40.472;-3.878;2023-04-26T07:35:53;53066.00;;;-139.96;39.27
7906;BME280;13291;40.472;-3.878;2023-04-26T07:38:21;53038.00;;;-139.96;39.93
7906;BME280;13291;40.472;-3.878;2023-04-26T07:40:48;53050.00;;;-139.96;39.95
7906;BME280;13291;40.472;-3.878;2023-04-26T07:43:17;53054.00;;;-139.96;40.00
7906;BME280;13291;40.472;-3.878;2023-04-26T07:45:44;52999.97;;;-139.96;39.86
7906;BME280;13291;40.472;-3.878;2023-04-26T07:48:11;53007.97;;;-139.96;40.31
7906;BME280;13291;40.472;-3.878;2023-04-26T07:50:38;53042.00;;;-139.96;40.22
7906;BME280;13291;40.472;-3.878;2023-04-26T07:53:05;53066.00;;;-139.96;40.41
7906;BME280;13291;40.472;-3.878;2023-04-26T07:55:32;53040.00;;;-139.96;39.98
7906;BME280;13291;40.472;-3.878;2023-04-26T07:57:59;53036.00;;;-139.96;39.67
7906;BME280;13291;40.472;-3.878;2023-04-26T08:00:28;53032.00;;;-139.96;40.32
7906;BME280;13291;40.472;-3.878;2023-04-26T08:02:55;53062.00;;;-139.96;39.67
7906;BME280;13291;40.472;-3.878;2023-04-26T08:05:22;53026.00;;;-139.96;39.60
7906;BME280;13291;40.472;-3.878;2023-04-26T08:07:49;53005.97;;;-139.96;39.15
7906;BME280;13291;40.472;-3.878;2023-04-26T08:10:16;53030.00;;;-139.96;39.91
7906;BME280;13291;40.472;-3.878;2023-04-26T08:12:42;53030.00;;;-139.96;39.47
7906;BME280;13291;40.472;-3.878;2023-04-26T08:15:10;53020.00;;;-139.96;38.99
7906;BME280;13291;40.472;-3.878;2023-04-26T08:17:39;53028.00;;;-139.96;38.78
7906;BME280;13291;40.472;-3.878;2023-04-26T08:20:07;53038.00;;;-139.96;39.31
7906;BME280;13291;40.472;-3.878;2023-04-26T08:22:34;52989.97;;;-139.96;39.48
7906;BME280;13291;40.472;-3.878;2023-04-26T08:25:01;53014.00;;;-139.96;39.31
7906;BME280;13291;40.472;-3.878;2023-04-26T08:27:29;53022.00;;;-139.96;39.49
7906;BME280;13291;40.472;-3.878;2023-04-26T08:29:56;53005.97;;;-139.96;39.30
7906;BME280;13291;40.472;-3.878;2023-04-26T08:32:23;53024.00;;;-139.96;39.18
7906;BME280;13291;40.472;-3.878;2023-04-26T08:34:51;53014.00;;;-139.96;38.21
7906;BME280;13291;40.472;-3.878;2023-04-26T08:37:18;53018.00;;;-139.96;38.00
7906;BME280;13291;40.472;-3.878;2023-04-26T08:39:45;53038.00;;;-139.96;38.28
7906;BME280;13291;40.472;-3.878;2023-04-26T08:42:13;53020.00;;;-139.96;39.08
7906;BME280;13291;40.472;-3.878;2023-04-26T08:44:41;53003.97;;;-139.96;39.29
7906;BME280;13291;40.472;-3.878;2023-04-26T08:47:13;53022.00;;;-139.96;39.43
7906;BME280;13291;40.472;-3.878;2023-04-26T08:49:43;52991.97;;;-139.96;39.26
7906;BME280;13291;40.472;-3.878;2023-04-26T08:52:14;52991.97;;;-139.96;38.67
7906;BME280;13291;40.472;-3.878;2023-04-26T08:54:41;53014.00;;;-139.96;39.26
7906;BME280;13291;40.472;-3.878;2023-04-26T08:57:09;52983.97;;;-139.96;38.94
7906;BME280;13291;40.472;-3.878;2023-04-26T08:59:37;52995.97;;;-139.96;39.17
7906;BME280;13291;40.472;-3.878;2023-04-26T09:02:05;52989.97;;;-139.96;38.48
7906;BME280;13291;40.472;-3.878;2023-04-26T09:04:32;52973.97;;;-139.96;38.38
7906;BME280;13291;40.472;-3.878;2023-04-26T09:07:00;52941.97;;;-139.96;37.42
7906;BME280;13291;40.472;-3.878;2023-04-26T09:09:34;52981.97;;;-139.96;37.60
7906;BME280;13291;40.472;-3.878;2023-04-26T09:12:02;52971.97;;;-139.96;36.59
7906;BME280;13291;40.472;-3.878;2023-04-26T09:14:29;52963.97;;;-139.96;35.78
7906;BME280;13291;40.472;-3.878;2023-04-26T09:16:56;52999.97;;;-139.96;36.98
7906;BME280;13291;40.472;-3.878;2023-04-26T09:19:41;52985.97;;;-139.96;36.73
7906;BME280;13291;40.472;-3.878;2023-04-26T09:22:08;52971.97;;;-139.96;36.70
7906;BME280;13291;40.472;-3.878;2023-04-26T09:24:47;52981.97;;;-139.96;36.85
7906;BME280;13291;40.472;-3.878;2023-04-26T09:27:14;53001.97;;;-139.96;36.92
7906;BME280;13291;40.472;-3.878;2023-04-26T09:29:56;52961.97;;;-139.96;36.07
7906;BME280;13291;40.472;-3.878;2023-04-26T09:32:24;53001.97;;;-139.96;37.48
7906;BME280;13291;40.472;-3.878;2023-04-26T09:34:51;52981.97;;;-139.96;37.30
7906;BME280;13291;40.472;-3.878;2023-04-26T09:37:18;52973.97;;;-139.96;36.82
7906;BME280;13291;40.472;-3.878;2023-04-26T09:39:46;52987.97;;;-139.96;36.28
7906;BME280;13291;40.472;-3.878;2023-04-26T09:42:16;52955.97;;;-139.96;36.96
7906;BME280;13291;40.472;-3.878;2023-04-26T09:44:44;52981.97;;;-139.96;36.77
7906;BME280;13291;40.472;-3.878;2023-04-26T09:47:11;52993.97;;;-139.96;36.10
7906;BME280;13291;40.472;-3.878;2023-04-26T09:49:45;52965.97;;;-139.96;36.36
7906;BME280;13291;40.472;-3.878;2023-04-26T09:52:13;52975.97;;;-139.96;36.59
7906;BME280;13291;40.472;-3.878;2023-04-26T09:54:43;52977.97;;;-139.96;35.58
7906;BME280;13291;40.472;-3.878;2023-04-26T09:57:13;52975.97;;;-139.96;35.55
7906;BME280;13291;40.472;-3.878;2023-04-26T09:59:42;53007.97;;;-139.96;35.94
7906;BME280;13291;40.472;-3.878;2023-04-26T10:02:18;52957.97;;;-139.96;36.17
7906;BME280;13291;40.472;-3.878;2023-04-26T10:04:47;52943.97;;;-139.96;35.76
7906;BME280;13291;40.472;-3.878;2023-04-26T10:07:16;52949.97;;;-139.96;35.89
7906;BME280;13291;40.472;-3.878;2023-04-26T10:09:43;52937.97;;;-139.96;36.13
7906;BME280;13291;40.472;-3.878;2023-04-26T10:12:14;52961.97;;;-139.96;36.01
7906;BME280;13291;40.472;-3.878;2023-04-26T10:14:43;52929.97;;;-139.96;34.86
7906;BME280;13291;40.472;-3.878;2023-04-26T10:17:12;52957.97;;;-139.96;35.07
7906;BME280;13291;40.472;-3.878;2023-04-26T10:19:41;52961.97;;;-139.96;35.05
7906;BME280;13291;40.472;-3.878;2023-04-26T10:22:15;52955.97;;;-139.96;35.66
7906;BME280;13291;40.472;-3.878;2023-04-26T10:24:43;52947.97;;;-139.96;35.17
7906;BME280;13291;40.472;-3.878;2023-04-26T10:27:12;52965.97;;;-139.96;35.30
7906;BME280;13291;40.472;-3.878;2023-04-26T10:30:12;52939.97;;;-139.96;34.46
7906;BME280;13291;40.472;-3.878;2023-04-26T10:36:13;52947.97;;;-139.96;35.01
7906;BME280;13291;40.472;-3.878;2023-04-26T10:38:41;52925.97;;;-139.96;34.29
7906;BME280;13291;40.472;-3.878;2023-04-26T10:41:31;52933.97;;;-139.96;34.57
7906;BME280;13291;40.472;-3.878;2023-04-26T10:44:39;52929.97;;;-139.96;33.06
7906;BME280;13291;40.472;-3.878;2023-04-26T10:47:06;52965.97;;;-139.96;32.84
7906;BME280;13291;40.472;-3.878;2023-04-26T10:49:43;52919.97;;;-139.96;32.82
7906;BME280;13291;40.472;-3.878;2023-04-26T10:52:15;52941.97;;;-139.96;32.85
7906;BME280;13291;40.472;-3.878;2023-04-26T10:54:49;52951.97;;;-139.96;32.50
7906;BME280;13291;40.472;-3.878;2023-04-26T10:57:16;52935.97;;;-139.96;32.96
7906;BME280;13291;40.472;-3.878;2023-04-26T11:03:02;52925.97;;;-139.96;32.58
7906;BME280;13291;40.472;-3.878;2023-04-26T11:05:36;52947.97;;;-139.96;32.52
7906;BME280;13291;40.472;-3.878;2023-04-26T11:08:07;52925.97;;;-139.96;32.36
7906;BME280;13291;40.472;-3.878;2023-04-26T11:10:40;52935.97;;;-139.96;32.62
7906;BME280;13291;40.472;-3.878;2023-04-26T11:13:07;52925.97;;;-139.96;32.97
7906;BME280;13291;40.472;-3.878;2023-04-26T11:15:34;52931.97;;;-139.96;31.42
7906;BME280;13291;40.472;-3.878;2023-04-26T11:18:03;52919.97;;;-139.96;31.44
7906;BME280;13291;40.472;-3.878;2023-04-26T11:20:31;52925.97;;;-139.96;29.85
7906;BME280;13291;40.472;-3.878;2023-04-26T11:23:01;52949.97;;;-139.96;29.38
7906;BME280;13291;40.472;-3.878;2023-04-26T11:25:28;52903.97;;;-139.96;28.12
7906;BME280;13291;40.472;-3.878;2023-04-26T11:27:59;52899.97;;;-139.96;27.97
7906;BME280;13291;40.472;-3.878;2023-04-26T11:30:29;52943.97;;;-139.96;28.50
7906;BME280;13291;40.472;-3.878;2023-04-26T11:32:57;52929.97;;;-139.96;29.13
7906;BME280;13291;40.472;-3.878;2023-04-26T11:35:26;52895.97;;;-139.96;28.94
7906;BME280;13291;40.472;-3.878;2023-04-26T11:37:57;52893.97;;;-139.96;27.38
7906;BME280;13291;40.472;-3.878;2023-04-26T11:40:27;52929.97;;;-139.96;26.85
7906;BME280;13291;40.472;-3.878;2023-04-26T11:42:54;52917.97;;;-139.96;25.53
7906;BME280;13291;40.472;-3.878;2023-04-26T11:45:24;52925.97;;;-139.96;25.58
7906;BME280;13291;40.472;-3.878;2023-04-26T11:47:51;52903.97;;;-139.96;25.46
7906;BME280;13291;40.472;-3.878;2023-04-26T11:50:19;52917.97;;;-139.96;25.38
7906;BME280;13291;40.472;-3.878;2023-04-26T11:52:53;52913.97;;;-139.96;25.10
7906;BME280;13291;40.472;-3.878;2023-04-26T11:55:23;52889.97;;;-139.96;25.78
7906;BME280;13291;40.472;-3.878;2023-04-26T11:57:50;52893.97;;;-139.96;25.69
7906;BME280;13291;40.472;-3.878;2023-04-26T12:00:18;52873.97;;;-139.96;26.12
7906;BME280;13291;40.472;-3.878;2023-04-26T12:02:46;52917.97;;;-139.96;26.97
7906;BME280;13291;40.472;-3.878;2023-04-26T12:05:23;52857.97;;;-139.96;26.26
7906;BME280;13291;40.472;-3.878;2023-04-26T12:07:53;52911.97;;;-139.96;25.90
7906;BME280;13291;40.472;-3.878;2023-04-26T12:10:24;52871.97;;;-139.96;25.56
7906;BME280;13291;40.472;-3.878;2023-04-26T12:12:53;52875.97;;;-139.96;25.36
7906;BME280;13291;40.472;-3.878;2023-04-26T12:15:24;52881.97;;;-139.96;25.43
7906;BME280;13291;40.472;-3.878;2023-04-26T12:17:57;52897.97;;;-139.96;25.12
7906;BME280;13291;40.472;-3.878;2023-04-26T12:20:32;52887.97;;;-139.96;25.39
7906;BME280;13291;40.472;-3.878;2023-04-26T12:23:04;52865.97;;;-139.96;25.39
7906;BME280;13291;40.472;-3.878;2023-04-26T12:25:32;52875.97;;;-139.96;25.12
7906;BME280;13291;40.472;-3.878;2023-04-26T12:28:00;52877.97;;;-139.96;25.14
7906;BME280;13291;40.472;-3.878;2023-04-26T12:30:28;52893.97;;;-139.96;25.90
7906;BME280;13291;40.472;-3.878;2023-04-26T12:32:55;52855.97;;;-139.96;25.12
7906;BME280;13291;40.472;-3.878;2023-04-26T12:35:22;52877.97;;;-139.96;25.49
7906;BME280;13291;40.472;-3.878;2023-04-26T12:37:49;52851.97;;;-139.96;25.45
7906;BME280;13291;40.472;-3.878;2023-04-26T12:40:19;52853.97;;;-139.96;25.29
7906;BME280;13291;40.472;-3.878;2023-04-26T12:42:47;52853.97;;;-139.96;25.80
7906;BME280;13291;40.472;-3.878;2023-04-26T12:45:14;52865.97;;;-139.96;25.68
7906;BME280;13291;40.472;-3.878;2023-04-26T12:47:41;52895.97;;;-139.96;25.52
7906;BME280;13291;40.472;-3.878;2023-04-26T12:50:09;52881.97;;;-139.96;26.09
7906;BME280;13291;40.472;-3.878;2023-04-26T12:52:37;52885.97;;;-139.96;26.08